Time;durP1;ratioP1;P1;durP2;ratioP2;P2;SDS_P1;SDS_P2;PMS_P1;PMS_P2;Temp;Humidity;BMP_temperature;BMP_pressure;BME280_temperature;BME280_humidity;BME280_pressure;Samples;Min_cycle;Max_cycle;Signal;HPM_P1;HPM_P2
2022/07/14 00:01:03;;;;;;;2.00;1.80;;;;;;;;;;5073031;28;20272;-61
2022/07/14 00:03:31;;;;;;;1.70;1.60;;;;;;;;;;5060696;28;20237;-61
2022/07/14 00:06:00;;;;;;;1.83;1.70;;;;;;;;;;5060308;28;20255;-61
2022/07/14 00:08:27;;;;;;;1.83;1.70;;;;;;;;;;5065943;28;20287;-62
2022/07/14 00:10:55;;;;;;;1.73;1.58;;;;;;;;;;5074883;28;20266;-62
2022/07/14 00:13:23;;;;;;;2.03;1.80;;;;;;;;;;5078441;28;20296;-62
2022/07/14 00:15:50;;;;;;;1.92;1.70;;;;;;;;;;5080523;28;20228;-61
2022/07/14 00:18:18;;;;;;;1.85;1.75;;;;;;;;;;5079764;28;20287;-61
2022/07/14 00:20:46;;;;;;;1.40;1.30;;;;;;;;;;5079972;28;20250;-61
2022/07/14 00:23:15;;;;;;;1.80;1.67;;;;;;;;;;5079545;28;20200;-61
2022/07/14 00:25:43;;;;;;;1.73;1.60;;;;;;;;;;5080324;28;20209;-61
2022/07/14 00:28:10;;;;;;;1.60;1.50;;;;;;;;;;5080075;28;20239;-61
2022/07/14 00:30:38;;;;;;;1.80;1.70;;;;;;;;;;5080222;28;20284;-61
2022/07/14 00:33:05;;;;;;;1.63;1.52;;;;;;;;;;5079116;28;20235;-62
2022/07/14 00:35:33;;;;;;;1.70;1.60;;;;;;;;;;5079700;28;20270;-61
2022/07/14 00:38:02;;;;;;;1.60;1.50;;;;;;;;;;5079784;28;20236;-61
2022/07/14 00:40:32;;;;;;;1.58;1.48;;;;;;;;;;5078415;28;20263;-61
2022/07/14 00:42:59;;;;;;;1.65;1.55;;;;;;;;;;5079963;28;20270;-61
2022/07/14 00:45:27;;;;;;;1.50;1.40;;;;;;;;;;5071504;28;20236;-61
2022/07/14 00:47:54;;;;;;;2.10;1.50;;;;;;;;;;5059373;28;20208;-61
2022/07/14 00:50:22;;;;;;;1.65;1.55;;;;;;;;;;5069353;28;20265;-61
2022/07/14 00:52:51;;;;;;;1.55;1.45;;;;;;;;;;5079840;28;20212;-61
2022/07/14 00:55:19;;;;;;;1.85;1.48;;;;;;;;;;5078095;28;20232;-61
2022/07/14 00:57:48;;;;;;;1.60;1.50;;;;;;;;;;5065236;28;20221;-61
2022/07/14 01:00:17;;;;;;;1.90;1.75;;;;;;;;;;5077849;28;20261;-61
2022/07/14 01:02:45;;;;;;;2.42;1.63;;;;;;;;;;5079627;28;20277;-61
2022/07/14 01:05:13;;;;;;;1.63;1.52;;;;;;;;;;5079569;28;20236;-61
2022/07/14 01:07:40;;;;;;;1.63;1.52;;;;;;;;;;5079237;28;20262;-61
2022/07/14 01:10:09;;;;;;;1.50;1.40;;;;;;;;;;5079086;28;20609;-61
2022/07/14 01:12:37;;;;;;;1.60;1.50;;;;;;;;;;5062692;28;20201;-61
2022/07/14 01:15:06;;;;;;;2.05;1.77;;;;;;;;;;5064045;28;20295;-61
2022/07/14 01:17:33;;;;;;;1.50;1.40;;;;;;;;;;5070518;28;20278;-61
2022/07/14 01:20:01;;;;;;;2.40;1.50;;;;;;;;;;5071011;28;20201;-61
2022/07/14 01:22:30;;;;;;;1.50;1.40;;;;;;;;;;5059081;28;20274;-61
2022/07/14 01:24:58;;;;;;;1.60;1.50;;;;;;;;;;5074472;28;20200;-61
2022/07/14 01:27:25;;;;;;;1.65;1.55;;;;;;;;;;5065295;28;20205;-61
2022/07/14 01:29:54;;;;;;;1.70;1.60;;;;;;;;;;5059127;28;20615;-61
2022/07/14 01:32:21;;;;;;;2.05;1.38;;;;;;;;;;5059323;28;20205;-61
2022/07/14 01:34:48;;;;;;;1.52;1.42;;;;;;;;;;5058734;28;20266;-61
2022/07/14 01:37:16;;;;;;;1.50;1.40;;;;;;;;;;5058588;28;20305;-61
2022/07/14 01:39:45;;;;;;;2.20;1.50;;;;;;;;;;5058530;28;20688;-61
2022/07/14 01:42:12;;;;;;;1.50;1.40;;;;;;;;;;5058837;28;20292;-62
2022/07/14 01:44:40;;;;;;;1.50;1.40;;;;;;;;;;5060193;28;20582;-61
2022/07/14 01:47:09;;;;;;;1.50;1.40;;;;;;;;;;5059935;28;20263;-61
2022/07/14 01:49:37;;;;;;;1.80;1.70;;;;;;;;;;5059818;28;20208;-61
2022/07/14 01:52:04;;;;;;;1.50;1.40;;;;;;;;;;5059777;28;20240;-62
2022/07/14 01:54:32;;;;;;;1.75;1.65;;;;;;;;;;5057994;28;20251;-61
2022/07/14 01:57:01;;;;;;;1.23;1.20;;;;;;;;;;5061553;28;20307;-62
2022/07/14 01:59:28;;;;;;;2.33;1.90;;;;;;;;;;5078291;28;20200;-62
2022/07/14 02:01:55;;;;;;;1.58;1.48;;;;;;;;;;5058452;28;20232;-61
2022/07/14 02:04:23;;;;;;;1.40;1.30;;;;;;;;;;5058076;28;20208;-62
2022/07/14 02:06:52;;;;;;;1.65;1.55;;;;;;;;;;5057710;28;20284;-61
2022/07/14 02:09:19;;;;;;;1.60;1.50;;;;;;;;;;5058159;28;20264;-62
2022/07/14 02:14:33;;;;;;;1.42;1.33;;;;;;;;;;5059769;28;20343;-61
2022/07/14 02:17:01;;;;;;;1.60;1.50;;;;;;;;;;5059000;28;20264;-61
2022/07/14 02:19:28;;;;;;;1.60;1.50;;;;;;;;;;5060561;28;20205;-61
2022/07/14 02:21:56;;;;;;;1.67;1.50;;;;;;;;;;5077486;28;20227;-61
2022/07/14 02:24:24;;;;;;;2.00;1.80;;;;;;;;;;5077949;28;20238;-61
2022/07/14 02:26:52;;;;;;;1.70;1.60;;;;;;;;;;5078159;28;20486;-62
2022/07/14 02:29:20;;;;;;;1.50;1.40;;;;;;;;;;5077399;28;20234;-62
2022/07/14 02:31:49;;;;;;;1.58;1.48;;;;;;;;;;5078149;28;20251;-61
2022/07/14 02:34:17;;;;;;;1.60;1.50;;;;;;;;;;5067548;28;20201;-62
2022/07/14 02:36:45;;;;;;;1.67;1.58;;;;;;;;;;5057359;28;20264;-61
2022/07/14 02:39:12;;;;;;;1.45;1.35;;;;;;;;;;5057870;28;20212;-61
2022/07/14 02:41:40;;;;;;;1.65;1.50;;;;;;;;;;5057819;28;20286;-62
2022/07/14 02:44:08;;;;;;;1.58;1.48;;;;;;;;;;5057603;28;20235;-61
2022/07/14 02:46:36;;;;;;;2.08;1.67;;;;;;;;;;5057618;28;20208;-61
2022/07/14 02:49:05;;;;;;;1.35;1.25;;;;;;;;;;5058327;28;20251;-62
2022/07/14 02:51:33;;;;;;;1.70;1.60;;;;;;;;;;5057575;28;20582;-61
2022/07/14 02:54:00;;;;;;;1.63;1.52;;;;;;;;;;5070290;28;20201;-61
2022/07/14 02:56:28;;;;;;;2.67;1.45;;;;;;;;;;5076914;28;20201;-61
2022/07/14 02:58:56;;;;;;;1.70;1.60;;;;;;;;;;5077383;28;20204;-62
2022/07/14 03:01:29;;;;;;;1.90;1.30;;;;;;;;;;5068941;28;20554;-62
2022/07/14 03:03:56;;;;;;;1.50;1.35;;;;;;;;;;5065225;28;20673;-62
2022/07/14 03:06:25;;;;;;;1.67;1.58;;;;;;;;;;5077192;28;20200;-61
2022/07/14 03:08:53;;;;;;;1.60;1.50;;;;;;;;;;5061177;28;20232;-62
2022/07/14 03:11:20;;;;;;;1.55;1.42;;;;;;;;;;5071715;28;20304;-62
2022/07/14 03:13:48;;;;;;;1.60;1.50;;;;;;;;;;5072408;28;20205;-62
2022/07/14 03:16:15;;;;;;;1.65;1.55;;;;;;;;;;5061865;28;20327;-61
2022/07/14 03:18:43;;;;;;;1.58;1.48;;;;;;;;;;5061723;28;20581;-61
2022/07/14 03:21:11;;;;;;;1.52;1.42;;;;;;;;;;5076199;28;20521;-62
2022/07/14 03:23:40;;;;;;;1.48;1.38;;;;;;;;;;5080799;28;20207;-62
2022/07/14 03:26:09;;;;;;;1.50;1.40;;;;;;;;;;5081098;28;20482;-61
2022/07/14 03:28:36;;;;;;;1.50;1.40;;;;;;;;;;5076451;28;20339;-62
2022/07/14 03:31:04;;;;;;;1.40;1.30;;;;;;;;;;5065228;28;20200;-61
2022/07/14 03:33:31;;;;;;;1.75;1.65;;;;;;;;;;5079921;28;20196;-61
2022/07/14 03:35:59;;;;;;;1.60;1.50;;;;;;;;;;5081059;28;20215;-61
2022/07/14 03:38:27;;;;;;;1.60;1.50;;;;;;;;;;5080242;28;20220;-61
2022/07/14 03:40:56;;;;;;;1.50;1.40;;;;;;;;;;5080586;28;20227;-61
2022/07/14 03:43:23;;;;;;;1.58;1.48;;;;;;;;;;5080270;28;20204;-62
2022/07/14 03:45:51;;;;;;;1.85;1.40;;;;;;;;;;5079675;28;20269;-62
2022/07/14 03:48:19;;;;;;;1.52;1.42;;;;;;;;;;5078736;28;20227;-62
2022/07/14 03:50:46;;;;;;;1.77;1.67;;;;;;;;;;5067055;28;20640;-62
2022/07/14 03:53:14;;;;;;;2.05;1.52;;;;;;;;;;5062137;28;20217;-61
2022/07/14 03:55:43;;;;;;;1.70;1.60;;;;;;;;;;5079967;28;20204;-62
2022/07/14 03:58:12;;;;;;;1.70;1.60;;;;;;;;;;5080242;28;20333;-62
2022/07/14 04:00:40;;;;;;;1.80;1.70;;;;;;;;;;5080078;28;20196;-61
2022/07/14 04:03:07;;;;;;;1.60;1.50;;;;;;;;;;5071169;28;20232;-62
2022/07/14 04:05:35;;;;;;;1.80;1.70;;;;;;;;;;5060221;28;20241;-62
2022/07/14 04:08:03;;;;;;;1.58;1.48;;;;;;;;;;5059932;28;20201;-62
2022/07/14 04:10:30;;;;;;;1.58;1.48;;;;;;;;;;5060218;28;20205;-62
2022/07/14 04:12:58;;;;;;;1.50;1.40;;;;;;;;;;5060295;28;20218;-62
2022/07/14 04:15:28;;;;;;;1.63;1.48;;;;;;;;;;5077402;28;20231;-62
2022/07/14 04:17:56;;;;;;;1.65;1.55;;;;;;;;;;5099856;28;20234;-61
2022/07/14 04:20:24;;;;;;;1.50;1.40;;;;;;;;;;5089447;28;20301;-62
2022/07/14 04:22:52;;;;;;;1.20;1.13;;;;;;;;;;5080017;28;20253;-61
2022/07/14 04:25:19;;;;;;;1.58;1.48;;;;;;;;;;5079522;28;20464;-62
2022/07/14 04:27:47;;;;;;;3.10;1.50;;;;;;;;;;5079695;28;20249;-61
2022/07/14 04:30:15;;;;;;;1.70;1.60;;;;;;;;;;5079606;28;20228;-62
2022/07/14 04:32:45;;;;;;;1.50;1.40;;;;;;;;;;5059541;28;20266;-62
2022/07/14 04:35:12;;;;;;;1.27;1.27;;;;;;;;;;5060047;28;20228;-61
2022/07/14 04:37:40;;;;;;;1.60;1.50;;;;;;;;;;5078579;28;20715;-62
2022/07/14 04:40:08;;;;;;;1.50;1.40;;;;;;;;;;5078575;28;20200;-61
2022/07/14 04:42:35;;;;;;;1.70;1.60;;;;;;;;;;5078386;28;20635;-61
2022/07/14 04:45:03;;;;;;;1.58;1.48;;;;;;;;;;5078317;28;20201;-61
2022/07/14 04:47:30;;;;;;;1.70;1.60;;;;;;;;;;5078326;28;20714;-61
2022/07/14 04:52:48;;;;;;;2.22;1.40;;;;;;;;;;5059049;28;20258;-61
2022/07/14 04:55:16;;;;;;;1.50;1.40;;;;;;;;;;5057989;28;20197;-61
2022/07/14 04:57:43;;;;;;;1.70;1.60;;;;;;;;;;5058230;28;20256;-62
2022/07/14 05:00:11;;;;;;;1.50;1.40;;;;;;;;;;5057531;28;20228;-62
2022/07/14 05:02:39;;;;;;;1.67;1.58;;;;;;;;;;5057951;28;20205;-62
2022/07/14 05:05:09;;;;;;;1.67;1.50;;;;;;;;;;5058250;28;20201;-62
2022/07/14 05:07:36;;;;;;;1.58;1.40;;;;;;;;;;5062648;28;20275;-62
2022/07/14 05:10:04;;;;;;;1.65;1.55;;;;;;;;;;5077451;28;20605;-61
2022/07/14 05:12:32;;;;;;;1.60;1.50;;;;;;;;;;5072940;28;20211;-62
2022/07/14 05:14:59;;;;;;;1.70;1.60;;;;;;;;;;5061047;28;20205;-62
2022/07/14 05:17:27;;;;;;;1.75;1.50;;;;;;;;;;5060380;28;20270;-62
2022/07/14 05:19:54;;;;;;;1.50;1.40;;;;;;;;;;5062333;28;20250;-61
2022/07/14 05:22:24;;;;;;;1.90;1.80;;;;;;;;;;5076853;28;20251;-61
2022/07/14 05:24:52;;;;;;;1.50;1.40;;;;;;;;;;5076764;28;20200;-62
2022/07/14 05:27:20;;;;;;;1.42;1.40;;;;;;;;;;5077063;28;20220;-61
2022/07/14 05:29:48;;;;;;;1.77;1.67;;;;;;;;;;5059635;28;20635;-61
2022/07/14 05:32:15;;;;;;;1.63;1.52;;;;;;;;;;5056335;28;20296;-61
2022/07/14 05:34:43;;;;;;;1.60;1.50;;;;;;;;;;5056378;28;20747;-61
2022/07/14 05:37:10;;;;;;;1.60;1.50;;;;;;;;;;5056555;28;20303;-61
2022/07/14 05:39:40;;;;;;;1.52;1.42;;;;;;;;;;5055710;28;20237;-61
2022/07/14 05:42:08;;;;;;;1.60;1.50;;;;;;;;;;5075260;28;20218;-62
2022/07/14 05:44:36;;;;;;;1.75;1.65;;;;;;;;;;5075364;28;20250;-62
2022/07/14 05:47:03;;;;;;;1.67;1.58;;;;;;;;;;5074727;28;20192;-62
2022/07/14 05:49:30;;;;;;;1.67;1.33;;;;;;;;;;5073593;28;20197;-62
2022/07/14 05:52:00;;;;;;;2.38;1.50;;;;;;;;;;5056106;28;20205;-62
2022/07/14 05:54:29;;;;;;;1.90;1.50;;;;;;;;;;5068263;28;20200;-61
2022/07/14 05:56:57;;;;;;;1.40;1.30;;;;;;;;;;5075758;28;20204;-61
2022/07/14 05:59:25;;;;;;;2.00;1.50;;;;;;;;;;5075047;28;20628;-61
2022/07/14 06:01:52;;;;;;;1.42;1.30;;;;;;;;;;5074472;28;20330;-61
2022/07/14 06:04:20;;;;;;;2.05;1.45;;;;;;;;;;5073871;28;20196;-62
2022/07/14 06:06:48;;;;;;;1.25;1.25;;;;;;;;;;5055584;28;20201;-62
2022/07/14 06:09:17;;;;;;;1.60;1.50;;;;;;;;;;5055713;28;20205;-61
2022/07/14 06:11:45;;;;;;;1.50;1.40;;;;;;;;;;5064711;28;20322;-61
2022/07/14 06:14:15;;;;;;;1.60;1.33;;;;;;;;;;5063255;28;20201;-61
2022/07/14 06:16:43;;;;;;;1.42;1.33;;;;;;;;;;5055219;28;20279;-61
2022/07/14 06:19:10;;;;;;;1.52;1.42;;;;;;;;;;5056260;28;20673;-61
2022/07/14 06:21:38;;;;;;;1.38;1.27;;;;;;;;;;5073274;28;20249;-62
2022/07/14 06:24:06;;;;;;;1.30;1.20;;;;;;;;;;5075076;28;20228;-62
2022/07/14 06:26:34;;;;;;;1.60;1.50;;;;;;;;;;5075404;28;20212;-61
2022/07/14 06:29:02;;;;;;;1.48;1.38;;;;;;;;;;5075068;28;20199;-62
2022/07/14 06:31:34;;;;;;;1.58;1.48;;;;;;;;;;5075297;28;20232;-62
2022/07/14 06:34:01;;;;;;;1.40;1.30;;;;;;;;;;5066909;28;20231;-61
2022/07/14 06:36:29;;;;;;;1.70;1.60;;;;;;;;;;5095322;28;20235;-61
2022/07/14 06:38:56;;;;;;;1.60;1.50;;;;;;;;;;5074265;28;20695;-62
2022/07/14 06:41:24;;;;;;;1.73;1.40;;;;;;;;;;5053902;28;20205;-62
2022/07/14 06:43:51;;;;;;;1.48;1.38;;;;;;;;;;5057672;28;20528;-61
2022/07/14 06:46:19;;;;;;;1.80;1.70;;;;;;;;;;5073716;28;20278;-61
2022/07/14 06:48:48;;;;;;;1.65;1.55;;;;;;;;;;5071287;28;20274;-61
2022/07/14 06:51:15;;;;;;;1.80;1.70;;;;;;;;;;5058396;28;20224;-61
2022/07/14 06:53:43;;;;;;;1.70;1.60;;;;;;;;;;5061907;28;20200;-62
2022/07/14 06:56:10;;;;;;;1.70;1.60;;;;;;;;;;5074414;28;20254;-61
2022/07/14 06:58:38;;;;;;;1.60;1.50;;;;;;;;;;5078691;28;20806;-61
2022/07/14 07:01:05;;;;;;;1.73;1.63;;;;;;;;;;5073809;28;20196;-62
2022/07/14 07:03:33;;;;;;;1.40;1.30;;;;;;;;;;5073440;28;20202;-62
2022/07/14 07:08:47;;;;;;;1.75;1.60;;;;;;;;;;5073771;28;20202;-61
2022/07/14 07:11:15;;;;;;;1.60;1.50;;;;;;;;;;5062325;28;20240;-61
2022/07/14 07:13:43;;;;;;;1.45;1.35;;;;;;;;;;5063701;28;20281;-61
2022/07/14 07:16:10;;;;;;;1.52;1.42;;;;;;;;;;5063200;28;20270;-61
2022/07/14 07:18:38;;;;;;;1.50;1.40;;;;;;;;;;5088197;28;20219;-61
2022/07/14 07:21:09;;;;;;;1.80;1.70;;;;;;;;;;5090454;28;20232;-61
2022/07/14 07:23:38;;;;;;;1.70;1.50;;;;;;;;;;5075151;28;20266;-61
2022/07/14 07:26:05;;;;;;;1.52;1.42;;;;;;;;;;5074223;28;20223;-61
2022/07/14 07:28:33;;;;;;;1.60;1.50;;;;;;;;;;5072961;28;20554;-61
2022/07/14 07:31:00;;;;;;;1.90;1.65;;;;;;;;;;5073418;28;20577;-61
2022/07/14 07:33:28;;;;;;;1.60;1.50;;;;;;;;;;5079789;28;20254;-61
2022/07/14 07:35:55;;;;;;;1.80;1.70;;;;;;;;;;5094311;28;20536;-61
2022/07/14 07:38:24;;;;;;;1.83;1.60;;;;;;;;;;5094021;28;20223;-61
2022/07/14 07:40:53;;;;;;;2.17;1.73;;;;;;;;;;5094186;28;20639;-61
2022/07/14 07:43:21;;;;;;;1.80;1.70;;;;;;;;;;5079770;28;20495;-61
2022/07/14 07:45:49;;;;;;;1.90;1.80;;;;;;;;;;5073815;28;20208;-61
2022/07/14 07:48:16;;;;;;;1.80;1.70;;;;;;;;;;5072109;28;20671;-61
2022/07/14 07:50:44;;;;;;;2.45;1.90;;;;;;;;;;5071958;28;20235;-61
2022/07/14 07:53:12;;;;;;;2.10;1.75;;;;;;;;;;5074116;28;20744;-61
2022/07/14 07:55:41;;;;;;;2.00;1.70;;;;;;;;;;5080978;28;20201;-61
2022/07/14 07:58:09;;;;;;;2.95;1.90;;;;;;;;;;5068408;28;20688;-61
2022/07/14 08:00:37;;;;;;;2.38;1.67;;;;;;;;;;5056250;28;20316;-61
2022/07/14 08:03:05;;;;;;;2.03;1.67;;;;;;;;;;5062011;28;20247;-61
2022/07/14 08:05:33;;;;;;;3.47;2.05;;;;;;;;;;5077213;28;20612;-61
2022/07/14 08:08:01;;;;;;;2.95;2.10;;;;;;;;;;5077592;28;20215;-61
2022/07/14 08:10:28;;;;;;;3.22;1.80;;;;;;;;;;5073243;28;20243;-61
2022/07/14 08:12:57;;;;;;;2.03;1.85;;;;;;;;;;5056852;28;20220;-61
2022/07/14 08:15:25;;;;;;;3.88;2.20;;;;;;;;;;5056571;28;20233;-61
2022/07/14 08:17:52;;;;;;;3.05;2.10;;;;;;;;;;5077881;28;20586;-61
2022/07/14 08:20:20;;;;;;;4.07;1.90;;;;;;;;;;5068765;28;20330;-61
2022/07/14 08:22:48;;;;;;;2.97;1.80;;;;;;;;;;5057429;28;20284;-61
2022/07/14 08:25:15;;;;;;;2.63;2.05;;;;;;;;;;5057434;28;20567;-61
2022/07/14 08:27:43;;;;;;;3.70;1.95;;;;;;;;;;5057145;28;20266;-61
2022/07/14 08:30:13;;;;;;;1.98;1.88;;;;;;;;;;5057928;28;20577;-61
2022/07/14 08:32:41;;;;;;;2.65;1.80;;;;;;;;;;5056623;28;20262;-61
2022/07/14 08:35:09;;;;;;;2.10;1.80;;;;;;;;;;5056136;28;20231;-61
2022/07/14 08:37:37;;;;;;;3.58;1.92;;;;;;;;;;5056472;28;20212;-61
2022/07/14 08:40:06;;;;;;;3.08;2.00;;;;;;;;;;5056951;28;20229;-61
2022/07/14 08:42:34;;;;;;;2.05;1.88;;;;;;;;;;5072203;28;20197;-62
2022/07/14 08:45:05;;;;;;;2.10;2.00;;;;;;;;;;5073112;28;20204;-61
2022/07/14 08:47:34;;;;;;;2.08;1.92;;;;;;;;;;5075834;28;20215;-61
2022/07/14 08:50:02;;;;;;;2.45;1.95;;;;;;;;;;5069215;28;20193;-61
2022/07/14 08:52:29;;;;;;;2.63;2.08;;;;;;;;;;5054303;28;20236;-61
2022/07/14 08:54:57;;;;;;;1.75;1.60;;;;;;;;;;5075757;28;20200;-61
2022/07/14 08:57:24;;;;;;;2.53;2.00;;;;;;;;;;5076097;28;20201;-61
2022/07/14 08:59:52;;;;;;;2.03;1.83;;;;;;;;;;5075454;28;20289;-61
2022/07/14 09:02:19;;;;;;;2.72;2.08;;;;;;;;;;5074974;28;20242;-63
2022/07/14 09:04:48;;;;;;;1.77;1.67;;;;;;;;;;5067640;28;20250;-61
2022/07/14 09:07:30;;;;;;;2.15;1.95;;;;;;;;;;5075432;28;20205;-61
2022/07/14 09:10:01;;;;;;;2.00;1.80;;;;;;;;;;5055519;28;20283;-61
2022/07/14 09:12:29;;;;;;;2.20;2.00;;;;;;;;;;5054482;28;20201;-62
2022/07/14 09:17:53;;;;;;;2.20;2.00;;;;;;;;;;5073064;28;20224;-61
2022/07/14 09:20:22;;;;;;;1.90;1.65;;;;;;;;;;5056662;28;20252;-61
2022/07/14 09:22:55;;;;;;;2.47;1.83;;;;;;;;;;5055627;28;20201;-61
2022/07/14 09:25:23;;;;;;;3.00;1.90;;;;;;;;;;5056192;28;20255;-60
2022/07/14 09:27:50;;;;;;;2.83;1.90;;;;;;;;;;5055292;28;20748;-61
2022/07/14 09:30:18;;;;;;;3.42;2.03;;;;;;;;;;5055117;28;20244;-60
2022/07/14 09:32:46;;;;;;;3.88;2.00;;;;;;;;;;5065305;28;20196;-61
2022/07/14 09:35:15;;;;;;;2.00;1.80;;;;;;;;;;5060924;28;20197;-61
2022/07/14 09:37:44;;;;;;;1.85;1.75;;;;;;;;;;5055745;28;20240;-61
2022/07/14 09:40:13;;;;;;;3.60;1.90;;;;;;;;;;5055045;28;20271;-61
2022/07/14 09:42:51;;;;;;;2.72;1.73;;;;;;;;;;5071670;28;20267;-61
2022/07/14 09:45:19;;;;;;;2.30;2.00;;;;;;;;;;5082913;28;20588;-61
2022/07/14 09:47:54;;;;;;;2.05;1.90;;;;;;;;;;5082561;28;20199;-61
2022/07/14 09:50:41;;;;;;;2.97;1.90;;;;;;;;;;5056212;28;20192;-61
2022/07/14 09:53:21;;;;;;;1.95;1.85;;;;;;;;;;5070902;28;20589;-61
2022/07/14 09:55:53;;;;;;;2.95;1.60;;;;;;;;;;5074844;28;20247;-61
2022/07/14 09:58:21;;;;;;;1.80;1.70;;;;;;;;;;5074586;28;20535;-61
2022/07/14 10:00:56;;;;;;;2.30;1.90;;;;;;;;;;5074777;28;20252;-60
2022/07/14 10:03:24;;;;;;;2.65;1.90;;;;;;;;;;5058896;28;20211;-60
2022/07/14 10:05:53;;;;;;;2.35;2.00;;;;;;;;;;5073411;28;20495;-60
2022/07/14 10:08:24;;;;;;;2.00;1.88;;;;;;;;;;5073729;28;20196;-61
2022/07/14 10:10:53;;;;;;;3.80;1.90;;;;;;;;;;5073818;28;20721;-60
2022/07/14 10:13:21;;;;;;;2.28;1.92;;;;;;;;;;5065972;28;20203;-60
2022/07/14 10:15:50;;;;;;;3.00;1.95;;;;;;;;;;5072451;28;20231;-60
2022/07/14 10:18:18;;;;;;;3.55;1.90;;;;;;;;;;5074630;28;20201;-60
2022/07/14 10:20:47;;;;;;;2.72;1.95;;;;;;;;;;5074664;28;20235;-60
2022/07/14 10:23:15;;;;;;;2.60;2.13;;;;;;;;;;5065477;28;20193;-60
2022/07/14 10:25:44;;;;;;;2.30;2.10;;;;;;;;;;5054452;28;20255;-60
2022/07/14 10:28:12;;;;;;;3.45;1.88;;;;;;;;;;5058906;28;20235;-60
2022/07/14 10:30:42;;;;;;;3.90;1.98;;;;;;;;;;5079602;28;20227;-60
2022/07/14 10:33:13;;;;;;;2.53;2.25;;;;;;;;;;5054260;28;20653;-61
2022/07/14 10:35:52;;;;;;;3.83;2.20;;;;;;;;;;5054685;28;20259;-61
2022/07/14 10:38:28;;;;;;;2.95;1.90;;;;;;;;;;5053732;28;20201;-61
2022/07/14 10:41:02;;;;;;;2.00;1.83;;;;;;;;;;5053691;28;20782;-60
2022/07/14 10:43:41;;;;;;;4.07;2.13;;;;;;;;;;5061351;28;20200;-60
2022/07/14 10:46:09;;;;;;;2.17;1.98;;;;;;;;;;5074120;28;20656;-61
2022/07/14 10:48:39;;;;;;;2.65;2.20;;;;;;;;;;5071711;28;20681;-62
2022/07/14 10:51:21;;;;;;;3.10;2.00;;;;;;;;;;5072107;28;20196;-61
2022/07/14 10:54:03;;;;;;;2.47;2.00;;;;;;;;;;5058986;28;20573;-61
2022/07/14 10:56:33;;;;;;;2.50;1.92;;;;;;;;;;5070784;28;20200;-61
2022/07/14 10:59:18;;;;;;;4.18;2.20;;;;;;;;;;5059522;28;20702;-61
2022/07/14 11:02:01;;;;;;;3.08;2.00;;;;;;;;;;5068869;28;20202;-61
2022/07/14 11:04:43;;;;;;;2.92;2.20;;;;;;;;;;5070122;28;20262;-60
2022/07/14 11:07:30;;;;;;;2.15;1.95;;;;;;;;;;5084078;28;20856;-61
2022/07/14 11:09:57;;;;;;;2.53;2.33;;;;;;;;;;5051938;28;20200;-60
2022/07/14 11:12:27;;;;;;;3.80;2.20;;;;;;;;;;5051801;28;20204;-60
2022/07/14 11:14:55;;;;;;;3.95;1.98;;;;;;;;;;5054813;28;20219;-60
2022/07/14 11:17:44;;;;;;;2.75;2.45;;;;;;;;;;5065571;28;20287;-60
2022/07/14 11:20:12;;;;;;;5.65;2.00;;;;;;;;;;5045742;28;20320;-60
2022/07/14 11:22:40;;;;;;;2.63;2.42;;;;;;;;;;5056420;28;20644;-60
2022/07/14 11:25:25;;;;;;;2.58;2.20;;;;;;;;;;5056078;28;20197;-60
2022/07/14 11:27:55;;;;;;;4.20;2.35;;;;;;;;;;5072944;28;20291;-60
2022/07/14 11:30:26;;;;;;;2.58;2.10;;;;;;;;;;5073017;28;20880;-61
2022/07/14 11:33:05;;;;;;;5.00;2.38;;;;;;;;;;5073117;28;20200;-60
2022/07/14 11:38:32;;;;;;;4.85;2.30;;;;;;;;;;5072787;28;20258;-60
2022/07/14 11:41:02;;;;;;;2.42;2.22;;;;;;;;;;5065561;28;20340;-60
2022/07/14 11:43:53;;;;;;;3.88;2.40;;;;;;;;;;5071847;28;20236;-60
2022/07/14 11:46:23;;;;;;;3.53;2.45;;;;;;;;;;5076083;28;20232;-60
2022/07/14 11:48:53;;;;;;;4.40;2.40;;;;;;;;;;5070991;28;20200;-60
2022/07/14 11:51:25;;;;;;;4.60;2.20;;;;;;;;;;5075311;28;20204;-61
2022/07/14 11:53:57;;;;;;;2.10;1.90;;;;;;;;;;5063396;28;20262;-60
2022/07/14 11:56:26;;;;;;;3.30;2.20;;;;;;;;;;5065005;28;20200;-61
2022/07/14 11:58:53;;;;;;;2.30;2.05;;;;;;;;;;5076756;28;20291;-60
2022/07/14 12:01:21;;;;;;;4.38;2.45;;;;;;;;;;5076537;28;20335;-60
2022/07/14 12:03:51;;;;;;;2.67;2.35;;;;;;;;;;5075229;28;20197;-60
2022/07/14 12:06:18;;;;;;;4.20;3.10;;;;;;;;;;5076254;28;20239;-60
2022/07/14 12:08:46;;;;;;;6.10;4.20;;;;;;;;;;5076352;28;20200;-60
2022/07/14 12:11:15;;;;;;;10.95;7.50;;;;;;;;;;5065695;28;20263;-58
2022/07/14 12:13:46;;;;;;;31.30;18.67;;;;;;;;;;5059182;28;20205;-59
2022/07/14 12:16:14;;;;;;;65.82;37.63;;;;;;;;;;5060462;28;20232;-59
2022/07/14 12:18:41;;;;;;;61.42;35.97;;;;;;;;;;5074356;28;20192;-59
2022/07/14 12:21:10;;;;;;;50.70;28.63;;;;;;;;;;5075877;28;20224;-59
2022/07/14 12:23:52;;;;;;;50.42;28.88;;;;;;;;;;5076582;28;20539;-59
2022/07/14 12:26:20;;;;;;;49.47;29.10;;;;;;;;;;5078192;28;20264;-59
2022/07/14 12:28:49;;;;;;;47.15;27.35;;;;;;;;;;5061763;28;20208;-59
2022/07/14 12:31:17;;;;;;;43.78;26.17;;;;;;;;;;5075773;28;20277;-59
2022/07/14 12:33:46;;;;;;;59.42;30.83;;;;;;;;;;5074777;28;20204;-59
2022/07/14 12:36:16;;;;;;;69.70;36.70;;;;;;;;;;5076208;28;20224;-59
2022/07/14 12:38:44;;;;;;;60.95;32.35;;;;;;;;;;5076108;28;20207;-60
2022/07/14 12:41:12;;;;;;;66.82;35.80;;;;;;;;;;5079381;28;20220;-59
2022/07/14 12:43:41;;;;;;;58.92;32.38;;;;;;;;;;5067124;28;20211;-59
2022/07/14 12:46:11;;;;;;;54.70;29.92;;;;;;;;;;5073395;28;20696;-59
2022/07/14 12:48:56;;;;;;;53.10;29.55;;;;;;;;;;5072617;28;20293;-59
2022/07/14 12:51:26;;;;;;;47.70;27.55;;;;;;;;;;5075638;28;20561;-59
2022/07/14 12:54:00;;;;;;;50.72;29.05;;;;;;;;;;5071656;28;20232;-60
2022/07/14 12:56:28;;;;;;;46.40;27.70;;;;;;;;;;5075373;28;20200;-59
2022/07/14 12:58:58;;;;;;;44.38;25.85;;;;;;;;;;5073116;28;20257;-59
2022/07/14 13:01:26;;;;;;;43.78;24.35;;;;;;;;;;5060004;28;20224;-62
2022/07/14 13:03:55;;;;;;;40.75;22.75;;;;;;;;;;5082130;28;20202;-60
2022/07/14 13:06:22;;;;;;;41.58;22.50;;;;;;;;;;5074887;28;20565;-59
2022/07/14 13:08:52;;;;;;;37.50;22.10;;;;;;;;;;5074358;28;20266;-60
2022/07/14 13:11:19;;;;;;;37.53;21.90;;;;;;;;;;5075340;28;20249;-60
2022/07/14 13:13:49;;;;;;;37.17;21.95;;;;;;;;;;5068436;28;20250;-61
2022/07/14 13:16:21;;;;;;;36.95;21.77;;;;;;;;;;5060318;28;20240;-62
2022/07/14 13:19:08;;;;;;;33.38;19.17;;;;;;;;;;5085368;28;20235;-62
2022/07/14 13:22:02;;;;;;;34.30;20.00;;;;;;;;;;5095284;28;20318;-62
2022/07/14 13:24:33;;;;;;;33.25;20.17;;;;;;;;;;5077802;28;20315;-60
2022/07/14 13:27:08;;;;;;;31.20;19.25;;;;;;;;;;5074809;28;20295;-59
2022/07/14 13:29:37;;;;;;;28.70;17.65;;;;;;;;;;5075613;28;20481;-59
2022/07/14 13:32:05;;;;;;;36.08;19.63;;;;;;;;;;5075331;28;20240;-62
2022/07/14 13:34:33;;;;;;;31.73;18.45;;;;;;;;;;5073194;28;20285;-62
2022/07/14 13:37:01;;;;;;;29.17;17.83;;;;;;;;;;5075886;28;20274;-62
2022/07/14 13:39:29;;;;;;;29.40;17.55;;;;;;;;;;5075094;28;20557;-62
2022/07/14 13:41:58;;;;;;;27.40;17.00;;;;;;;;;;5074679;28;20219;-62
2022/07/14 13:44:26;;;;;;;27.70;16.67;;;;;;;;;;5057249;28;20204;-62
2022/07/14 13:46:55;;;;;;;27.17;16.50;;;;;;;;;;5055460;28;20211;-62
2022/07/14 13:49:23;;;;;;;27.23;16.20;;;;;;;;;;5054141;28;20196;-62
2022/07/14 13:54:36;;;;;;;25.77;15.43;;;;;;;;;;5069710;28;20219;-62
2022/07/14 13:57:05;;;;;;;26.27;15.68;;;;;;;;;;5071345;28;20197;-62
2022/07/14 13:59:34;;;;;;;22.90;14.18;;;;;;;;;;5073933;28;20243;-59
2022/07/14 14:02:01;;;;;;;22.58;13.73;;;;;;;;;;5063147;28;20229;-62
2022/07/14 14:04:29;;;;;;;22.00;14.52;;;;;;;;;;5055047;28;20210;-62
2022/07/14 14:06:56;;;;;;;22.08;13.77;;;;;;;;;;5056230;28;20200;-63
2022/07/14 14:09:27;;;;;;;21.13;13.40;;;;;;;;;;5073297;28;20303;-62
2022/07/14 14:11:57;;;;;;;19.58;13.75;;;;;;;;;;5074818;28;20200;-62
2022/07/14 14:14:27;;;;;;;20.10;13.23;;;;;;;;;;5060683;28;20263;-60
2022/07/14 14:16:55;;;;;;;19.63;12.85;;;;;;;;;;5054910;28;20477;-63
2022/07/14 14:19:23;;;;;;;19.27;12.43;;;;;;;;;;5069992;28;20481;-62
2022/07/14 14:21:51;;;;;;;19.67;12.63;;;;;;;;;;5072637;28;20255;-62
2022/07/14 14:24:19;;;;;;;19.73;12.98;;;;;;;;;;5071896;28;20208;-60
2022/07/14 14:26:46;;;;;;;16.17;11.85;;;;;;;;;;5073788;28;20232;-62
2022/07/14 14:29:14;;;;;;;17.85;12.00;;;;;;;;;;5072542;28;20200;-62
2022/07/14 14:31:43;;;;;;;16.13;10.90;;;;;;;;;;5070557;28;20210;-62
2022/07/14 14:34:11;;;;;;;16.35;10.35;;;;;;;;;;5057426;28;20312;-63
2022/07/14 14:36:38;;;;;;;17.70;11.65;;;;;;;;;;5073306;28;20676;-62
2022/07/14 14:39:05;;;;;;;17.75;11.68;;;;;;;;;;5059194;28;20244;-62
2022/07/14 14:41:33;;;;;;;15.68;10.77;;;;;;;;;;5053281;28;20256;-62
2022/07/14 14:44:04;;;;;;;15.85;9.55;;;;;;;;;;5053238;28;20201;-63
2022/07/14 14:46:31;;;;;;;14.90;9.70;;;;;;;;;;5053366;28;20212;-62
2022/07/14 14:49:01;;;;;;;13.25;9.40;;;;;;;;;;5063436;28;20230;-62
2022/07/14 14:51:29;;;;;;;14.40;9.18;;;;;;;;;;5057964;28;20224;-61
2022/07/14 14:53:56;;;;;;;15.77;9.80;;;;;;;;;;5055222;28;20236;-60
2022/07/14 14:56:24;;;;;;;15.13;9.50;;;;;;;;;;5075334;28;20654;-61
2022/07/14 14:58:52;;;;;;;13.77;8.85;;;;;;;;;;5072061;28;20254;-60
2022/07/14 15:01:19;;;;;;;13.00;9.35;;;;;;;;;;5073313;28;20282;-60
2022/07/14 15:03:48;;;;;;;11.07;8.38;;;;;;;;;;5071332;28;20210;-60
2022/07/14 15:06:17;;;;;;;14.27;8.65;;;;;;;;;;5067148;28;20203;-60